Terminal Aerodrome Forecast
Issued by NWS

Home | Current Version | Previous Version | Text Only | Print | Product List | Glossary On
Versions: 1 2 3 4 5 6 7 8 9 10 11 12 13 14 15
000
FTUS45 KABQ 181700
TAFFMN
TAF
KFMN 181730Z 1818/1918 VRB05KT P6SM BKN012 OVC040
     FM182100 29006KT P6SM VCSH OVC050
     FM190100 VRB04KT P6SM BKN080
     FM190600 VRB04KT 1SM BR SCT005 OVC010=

USA.gov is the U.S. government's official web portal to all federal, state and local government web resources and services.